createdAt,value
2023-05-04T00:01:27.297Z,9.38
2023-05-04T00:04:14.154Z,11.48
2023-05-04T00:06:59.572Z,6.03
2023-05-04T00:09:44.940Z,6.95
2023-05-04T00:12:30.700Z,9.05
2023-05-04T00:15:16.646Z,8.48
2023-05-04T00:18:02.282Z,8.63
2023-05-04T00:20:48.176Z,13.23
2023-05-04T00:23:33.754Z,8.38
2023-05-04T00:26:19.519Z,10.98
2023-05-04T00:29:05.593Z,19.65
2023-05-04T00:31:51.610Z,18.05
2023-05-04T00:34:36.865Z,16.77
2023-05-04T00:37:22.113Z,17.95
2023-05-04T00:40:09.058Z,11.77
2023-05-04T00:42:54.605Z,10.10
2023-05-04T00:45:41.072Z,11.85
2023-05-04T00:48:26.332Z,12.70
2023-05-04T00:51:14.205Z,16.38
2023-05-04T00:54:00.253Z,11.75
2023-05-04T00:56:46.139Z,13.07
2023-05-04T00:59:31.492Z,11.48
2023-05-04T01:02:16.962Z,11.65
2023-05-04T01:05:03.157Z,13.35
2023-05-04T01:08:07.536Z,14.93
2023-05-04T01:11:00.771Z,11.07
2023-05-04T01:13:49.477Z,23.00
2023-05-04T01:16:34.965Z,13.15
2023-05-04T01:19:20.583Z,13.68
2023-05-04T01:22:06.235Z,21.27
2023-05-04T01:24:51.503Z,12.00
2023-05-04T01:27:46.046Z,11.13
2023-05-04T01:30:44.907Z,10.57
2023-05-04T01:33:31.685Z,12.95
2023-05-04T01:36:17.703Z,18.63
2023-05-04T01:39:04.156Z,18.27
2023-05-04T01:41:51.895Z,11.13
2023-05-04T01:44:37.534Z,15.25
2023-05-04T01:47:23.269Z,19.90
2023-05-04T01:50:09.430Z,11.68
2023-05-04T01:52:54.969Z,10.90
2023-05-04T01:55:40.741Z,16.90
2023-05-04T01:58:27.258Z,21.35
2023-05-04T02:01:12.779Z,19.55
2023-05-04T02:03:58.205Z,15.45
2023-05-04T02:06:43.822Z,13.30
2023-05-04T02:09:29.590Z,13.13
2023-05-04T02:12:14.952Z,15.20
2023-05-04T02:15:00.217Z,12.60
2023-05-04T02:17:46.589Z,14.60
2023-05-04T02:20:31.756Z,16.02
2023-05-04T02:23:17.152Z,17.98
2023-05-04T02:26:02.594Z,13.50
2023-05-04T02:28:48.270Z,19.15
2023-05-04T02:31:34.238Z,15.90
2023-05-04T02:34:19.653Z,19.52
2023-05-04T02:37:08.182Z,21.88
2023-05-04T02:39:53.498Z,15.93
2023-05-04T02:42:38.965Z,21.05
2023-05-04T02:45:24.803Z,18.40
2023-05-04T02:48:10.389Z,14.95
2023-05-04T02:50:56.598Z,19.88
2023-05-04T02:53:42.091Z,19.25
2023-05-04T02:56:27.474Z,14.25
2023-05-04T02:59:13.032Z,16.55
2023-05-04T03:01:58.419Z,20.83
2023-05-04T03:04:44.007Z,16.40
2023-05-04T03:07:29.552Z,17.02
2023-05-04T03:10:15.301Z,24.80
2023-05-04T03:13:06.097Z,16.80
2023-05-04T03:15:51.663Z,18.42
2023-05-04T03:18:37.125Z,16.98
2023-05-04T03:21:24.016Z,20.98
2023-05-04T03:24:09.915Z,12.98
2023-05-04T03:26:55.546Z,15.65
2023-05-04T03:29:42.305Z,14.77
2023-05-04T03:32:28.168Z,12.35
2023-05-04T03:35:14.357Z,15.32
2023-05-04T03:38:01.203Z,14.75
2023-05-04T03:40:47.063Z,14.00
2023-05-04T03:43:33.053Z,13.77
2023-05-04T03:46:18.993Z,18.92
2023-05-04T03:49:04.761Z,16.25
2023-05-04T03:51:50.304Z,14.65
2023-05-04T03:54:35.766Z,13.15
2023-05-04T03:57:22.449Z,14.07
2023-05-04T04:00:09.189Z,14.40
2023-05-04T04:03:00.356Z,13.43
2023-05-04T04:05:47.823Z,14.45
2023-05-04T04:08:33.468Z,9.30
2023-05-04T04:11:18.684Z,13.45
2023-05-04T04:14:04.014Z,13.93
2023-05-04T04:16:49.545Z,13.70
2023-05-04T04:19:34.896Z,9.43
2023-05-04T04:22:20.386Z,14.13
2023-05-04T04:25:05.912Z,12.82
2023-05-04T04:27:51.669Z,16.17
2023-05-04T04:30:37.521Z,11.60
2023-05-04T04:33:22.855Z,13.55
2023-05-04T04:36:09.193Z,15.93
2023-05-04T04:38:54.552Z,26.80
2023-05-04T04:41:39.977Z,14.18
2023-05-04T04:44:25.374Z,10.57
2023-05-04T04:47:10.755Z,13.65
2023-05-04T04:49:56.449Z,11.85
2023-05-04T04:52:41.794Z,11.93
2023-05-04T04:55:27.263Z,14.50
2023-05-04T04:58:13.100Z,16.02
2023-05-04T05:00:58.927Z,17.83
2023-05-04T05:03:45.740Z,13.82
2023-05-04T05:06:31.482Z,17.15
2023-05-04T05:09:16.955Z,11.85
2023-05-04T05:12:02.645Z,12.82
2023-05-04T05:14:48.244Z,18.65
2023-05-04T05:17:35.691Z,23.55
2023-05-04T05:20:21.452Z,23.83
2023-05-04T05:23:06.645Z,15.55
2023-05-04T05:25:52.440Z,16.75
2023-05-04T05:28:38.027Z,19.90
2023-05-04T05:31:23.665Z,19.10
2023-05-04T05:34:09.363Z,19.23
2023-05-04T05:36:54.820Z,17.30
2023-05-04T05:39:40.482Z,22.00
2023-05-04T05:42:26.120Z,18.73
2023-05-04T05:45:11.749Z,18.33
2023-05-04T05:47:57.445Z,23.85
2023-05-04T05:50:42.854Z,14.75
2023-05-04T05:53:28.450Z,19.02
2023-05-04T05:56:14.906Z,23.30
2023-05-04T05:59:00.185Z,19.55
2023-05-04T06:01:45.712Z,13.68
2023-05-04T06:04:30.997Z,23.80
2023-05-04T06:07:16.492Z,19.20
2023-05-04T06:10:02.287Z,20.73
2023-05-04T06:12:47.940Z,19.40
2023-05-04T06:15:33.433Z,18.10
2023-05-04T06:18:20.209Z,16.20
2023-05-04T06:21:05.681Z,20.58
2023-05-04T06:23:51.098Z,18.33
2023-05-04T06:26:36.442Z,14.70
2023-05-04T06:29:22.675Z,16.40
2023-05-04T06:32:10.435Z,17.50
2023-05-04T06:34:56.299Z,18.15
2023-05-04T06:37:42.123Z,14.10
2023-05-04T06:40:27.480Z,18.10
2023-05-04T06:43:13.164Z,15.30
2023-05-04T06:46:05.022Z,16.83
2023-05-04T06:48:50.779Z,13.57
2023-05-04T06:51:37.771Z,15.13
2023-05-04T06:54:23.613Z,19.80
2023-05-04T06:57:09.026Z,13.57
2023-05-04T06:59:54.544Z,13.85
2023-05-04T07:02:40.032Z,14.70
2023-05-04T07:05:25.986Z,9.63
2023-05-04T07:08:12.584Z,11.43
2023-05-04T07:10:58.387Z,10.30
2023-05-04T07:13:43.797Z,11.98
2023-05-04T07:16:29.318Z,12.57
2023-05-04T07:19:14.598Z,17.15
2023-05-04T07:22:00.944Z,13.27
2023-05-04T07:24:46.841Z,15.52
2023-05-04T07:27:32.626Z,14.55
2023-05-04T07:30:20.533Z,17.55
2023-05-04T07:33:06.401Z,12.10
2023-05-04T07:36:00.086Z,15.07
2023-05-04T07:38:45.931Z,17.92
2023-05-04T07:41:31.724Z,11.43
2023-05-04T07:44:17.149Z,15.10
2023-05-04T07:47:02.923Z,11.40
2023-05-04T07:49:48.627Z,11.48
2023-05-04T07:52:33.818Z,15.30
2023-05-04T07:55:19.636Z,15.15
2023-05-04T07:58:05.476Z,14.70
2023-05-04T08:00:50.876Z,20.00
2023-05-04T08:03:36.489Z,10.88
2023-05-04T08:06:22.129Z,16.67
2023-05-04T08:09:08.105Z,17.65
2023-05-04T08:11:53.776Z,16.15
2023-05-04T08:14:40.556Z,17.63
2023-05-04T08:17:26.484Z,19.33
2023-05-04T08:20:12.286Z,16.02
2023-05-04T08:22:58.086Z,20.65
2023-05-04T08:25:43.642Z,20.40
2023-05-04T08:28:31.122Z,17.73
2023-05-04T08:31:18.798Z,26.75
2023-05-04T08:34:04.856Z,16.42
2023-05-04T08:36:50.865Z,20.70
2023-05-04T08:39:36.369Z,24.95
2023-05-04T08:42:29.829Z,23.60
2023-05-04T08:45:16.654Z,23.00
2023-05-04T08:48:02.251Z,24.75
2023-05-04T08:50:48.614Z,24.50
2023-05-04T08:53:36.519Z,26.38
2023-05-04T08:56:23.297Z,26.05
2023-05-04T08:59:20.002Z,29.17
2023-05-04T09:02:05.901Z,23.10
2023-05-04T09:04:52.879Z,20.65
2023-05-04T09:07:38.392Z,28.55
2023-05-04T09:10:26.344Z,25.38
2023-05-04T09:13:13.261Z,28.10
2023-05-04T09:15:59.179Z,30.00
2023-05-04T09:18:46.037Z,30.35
2023-05-04T09:21:32.510Z,25.55
2023-05-04T09:24:31.151Z,23.65
2023-05-04T09:27:19.613Z,35.67
2023-05-04T09:30:06.026Z,27.45
2023-05-04T09:32:53.194Z,24.60
2023-05-04T09:35:44.700Z,30.25
2023-05-04T09:38:34.948Z,31.45
2023-05-04T09:41:31.975Z,25.48
2023-05-04T09:44:22.531Z,28.83
2023-05-04T09:47:08.578Z,22.45
2023-05-04T09:49:54.385Z,26.10
2023-05-04T09:52:42.222Z,28.73
2023-05-04T09:55:28.592Z,27.15
2023-05-04T09:58:19.108Z,29.90
2023-05-04T10:01:05.914Z,27.23
2023-05-04T10:03:53.770Z,25.40
2023-05-04T10:06:39.353Z,28.25
2023-05-04T10:09:29.934Z,21.55
2023-05-04T10:12:15.824Z,24.90
2023-05-04T10:15:01.806Z,28.88
2023-05-04T10:18:25.168Z,22.70
2023-05-04T10:21:42.555Z,28.48
2023-05-04T10:24:55.409Z,20.63
2023-05-04T10:28:01.993Z,28.13
2023-05-04T10:30:47.630Z,25.38
2023-05-04T10:33:43.311Z,25.05
2023-05-04T10:36:36.707Z,29.17
2023-05-04T10:39:24.811Z,31.05
2023-05-04T10:42:10.025Z,29.80
2023-05-04T10:44:57.130Z,26.83
2023-05-04T10:47:42.759Z,23.67
2023-05-04T10:50:28.215Z,24.38
2023-05-04T10:53:15.201Z,23.27
2023-05-04T10:56:01.608Z,31.17
2023-05-04T10:58:47.231Z,34.25
2023-05-04T11:01:44.211Z,31.30
2023-05-04T11:04:30.537Z,26.80
2023-05-04T11:07:16.242Z,33.72
2023-05-04T11:10:02.203Z,23.25
2023-05-04T11:12:48.139Z,27.13
2023-05-04T11:15:44.453Z,34.95
2023-05-04T11:18:35.537Z,30.80
2023-05-04T11:21:27.776Z,27.02
2023-05-04T11:24:13.765Z,26.42
2023-05-04T11:26:59.255Z,30.60
2023-05-04T11:30:03.224Z,28.58
2023-05-04T11:32:51.860Z,26.27
2023-05-04T11:35:37.662Z,27.33
2023-05-04T11:38:23.354Z,32.50
2023-05-04T11:41:09.506Z,22.67
2023-05-04T11:43:55.187Z,28.13
2023-05-04T11:46:40.979Z,34.97
2023-05-04T11:49:27.746Z,36.85
2023-05-04T11:52:13.501Z,27.35
2023-05-04T11:54:59.259Z,32.03
2023-05-04T11:57:44.676Z,23.35
2023-05-04T12:00:43.960Z,42.10
2023-05-04T12:06:33.588Z,26.95
2023-05-04T12:09:19.167Z,29.40
2023-05-04T12:12:04.677Z,25.02
2023-05-04T12:14:52.224Z,33.03
2023-05-04T12:17:42.103Z,28.13
2023-05-04T12:20:29.468Z,28.23
2023-05-04T12:23:14.917Z,26.25
2023-05-04T12:26:00.253Z,33.40
2023-05-04T12:28:45.612Z,39.28
2023-05-04T12:31:31.024Z,24.40
2023-05-04T12:34:16.727Z,35.85
2023-05-04T12:37:02.274Z,24.50
2023-05-04T12:39:47.584Z,23.85
2023-05-04T12:42:33.060Z,25.15
2023-05-04T12:45:18.489Z,32.63
2023-05-04T12:48:04.113Z,25.52
2023-05-04T12:50:51.153Z,31.08
2023-05-04T12:53:36.907Z,31.58
2023-05-04T12:56:22.456Z,31.02
2023-05-04T12:59:07.867Z,31.83
2023-05-04T13:01:53.601Z,31.27
2023-05-04T13:04:40.227Z,31.38
2023-05-04T13:07:25.860Z,31.42
2023-05-04T13:10:11.334Z,30.48
2023-05-04T13:12:56.865Z,27.40
2023-05-04T13:15:42.810Z,30.23
2023-05-04T13:18:29.048Z,32.92
2023-05-04T13:21:14.544Z,30.20
2023-05-04T13:24:00.488Z,30.30
2023-05-04T13:26:46.136Z,35.22
2023-05-04T13:29:31.706Z,25.67
2023-05-04T13:32:17.111Z,35.25
2023-05-04T13:35:04.261Z,29.95
2023-05-04T13:37:49.673Z,26.75
2023-05-04T13:40:35.230Z,23.88
2023-05-04T13:43:21.817Z,26.08
2023-05-04T13:46:07.278Z,30.30
2023-05-04T13:48:54.174Z,23.70
2023-05-04T13:51:40.410Z,25.50
2023-05-04T13:54:27.674Z,23.08
2023-05-04T13:57:13.219Z,31.30
2023-05-04T14:00:06.962Z,29.20
2023-05-04T14:02:59.495Z,27.40
2023-05-04T14:05:45.303Z,27.98
2023-05-04T14:08:31.029Z,26.55
2023-05-04T14:11:16.394Z,29.08
2023-05-04T14:14:01.895Z,28.95
2023-05-04T14:16:47.285Z,31.58
2023-05-04T14:19:32.568Z,32.80
2023-05-04T14:22:18.071Z,30.40
2023-05-04T14:25:03.486Z,26.23
2023-05-04T14:27:49.142Z,32.42
2023-05-04T14:30:34.522Z,30.65
2023-05-04T14:33:19.783Z,25.45
2023-05-04T14:36:05.501Z,27.92
2023-05-04T14:38:51.144Z,29.90
2023-05-04T14:41:37.779Z,33.03
2023-05-04T14:44:24.827Z,32.83
2023-05-04T14:47:10.354Z,35.70
2023-05-04T14:49:56.116Z,28.25
2023-05-04T14:52:41.634Z,27.42
2023-05-04T14:55:26.883Z,27.92
2023-05-04T14:58:14.100Z,28.77
2023-05-04T15:00:59.512Z,42.08
2023-05-04T15:03:45.025Z,32.15
2023-05-04T15:06:32.821Z,31.02
2023-05-04T15:09:18.379Z,32.70
2023-05-04T15:12:04.787Z,31.40
2023-05-04T15:14:50.345Z,33.92
2023-05-04T15:17:36.005Z,34.60
2023-05-04T15:20:22.592Z,32.10
2023-05-04T15:23:11.630Z,34.97
2023-05-04T15:25:57.305Z,37.17
2023-05-04T15:28:42.890Z,34.88
2023-05-04T15:31:28.365Z,37.17
2023-05-04T15:34:16.189Z,42.40
2023-05-04T15:37:03.328Z,32.67
2023-05-04T15:39:48.683Z,30.35
2023-05-04T15:42:34.057Z,31.40
2023-05-04T15:45:19.583Z,30.70
2023-05-04T15:48:05.436Z,33.42
2023-05-04T15:50:51.121Z,38.28
2023-05-04T15:53:36.473Z,36.20
2023-05-04T15:56:22.395Z,35.22
2023-05-04T15:59:08.040Z,30.27
2023-05-04T16:01:53.896Z,28.50
2023-05-04T16:04:39.336Z,30.88
2023-05-04T16:07:24.729Z,30.77
2023-05-04T16:10:10.422Z,30.98
2023-05-04T16:12:56.703Z,19.80
2023-05-04T16:15:42.384Z,25.88
2023-05-04T16:18:28.010Z,26.25
2023-05-04T16:21:15.164Z,28.10
2023-05-04T16:24:00.845Z,27.92
2023-05-04T16:26:49.874Z,25.38
2023-05-04T16:29:35.435Z,32.03
2023-05-04T16:32:21.597Z,31.65
2023-05-04T16:35:08.225Z,29.83
2023-05-04T16:37:53.877Z,30.45
2023-05-04T16:40:41.629Z,23.77
2023-05-04T16:43:27.366Z,22.23
2023-05-04T16:46:12.808Z,24.02
2023-05-04T16:48:58.070Z,31.10
2023-05-04T16:51:43.649Z,24.70
2023-05-04T16:54:29.142Z,23.73
2023-05-04T16:57:14.604Z,26.20
2023-05-04T17:00:00.164Z,23.23
2023-05-04T17:02:45.594Z,27.58
2023-05-04T17:05:31.544Z,24.40
2023-05-04T17:08:17.588Z,35.28
2023-05-04T17:11:03.426Z,31.10
2023-05-04T17:13:48.894Z,27.10
2023-05-04T17:16:34.360Z,31.17
2023-05-04T17:19:19.969Z,32.33
2023-05-04T17:22:05.609Z,34.97
2023-05-04T17:24:51.200Z,32.60
2023-05-04T17:27:36.665Z,34.00
2023-05-04T17:30:22.637Z,39.72
2023-05-04T17:33:08.315Z,34.65
2023-05-04T17:35:54.196Z,36.85
2023-05-04T17:38:40.949Z,23.02
2023-05-04T17:41:26.836Z,36.13
2023-05-04T17:44:12.319Z,34.45
2023-05-04T17:46:57.690Z,36.30
2023-05-04T17:49:42.989Z,35.25
2023-05-04T17:52:28.404Z,34.90
2023-05-04T17:55:13.831Z,41.10
2023-05-04T17:57:59.282Z,42.75
2023-05-04T18:00:44.578Z,27.88
2023-05-04T18:03:29.912Z,30.65
2023-05-04T18:06:15.258Z,31.10
2023-05-04T18:09:01.015Z,30.52
2023-05-04T18:11:47.006Z,26.55
2023-05-04T18:14:32.744Z,29.40
2023-05-04T18:17:17.983Z,32.88
2023-05-04T18:20:05.003Z,24.60
2023-05-04T18:22:50.604Z,42.28
2023-05-04T18:25:37.540Z,24.10
2023-05-04T18:28:23.378Z,34.33
2023-05-04T18:31:09.048Z,36.35
2023-05-04T18:33:54.351Z,38.28
2023-05-04T18:36:39.820Z,27.23
2023-05-04T18:39:25.057Z,36.22
2023-05-04T18:42:10.590Z,30.50
2023-05-04T18:44:56.277Z,25.05
2023-05-04T18:47:41.873Z,30.30
2023-05-04T18:50:27.330Z,31.63
2023-05-04T18:53:12.639Z,29.77
2023-05-04T18:56:02.607Z,30.92
2023-05-04T18:58:48.322Z,34.88
2023-05-04T19:01:33.814Z,31.23
2023-05-04T19:04:19.710Z,29.80
2023-05-04T19:07:05.205Z,26.80
2023-05-04T19:09:50.799Z,34.40
2023-05-04T19:12:36.622Z,36.05
2023-05-04T19:15:23.131Z,41.40
2023-05-04T19:18:08.748Z,24.15
2023-05-04T19:20:54.697Z,29.27
2023-05-04T19:23:40.207Z,40.85
2023-05-04T19:26:25.893Z,26.30
2023-05-04T19:29:11.899Z,29.73
2023-05-04T19:31:59.532Z,20.63
2023-05-04T19:34:46.995Z,37.67
2023-05-04T19:37:32.833Z,36.42
2023-05-04T19:40:18.424Z,37.80
2023-05-04T19:43:04.633Z,34.90
2023-05-04T19:45:51.497Z,31.10
2023-05-04T19:48:37.154Z,33.40
2023-05-04T19:51:22.959Z,30.27
2023-05-04T19:54:11.233Z,35.53
2023-05-04T19:56:57.246Z,39.13
2023-05-04T19:59:44.252Z,32.95
2023-05-04T20:02:32.462Z,41.97
2023-05-04T20:05:18.057Z,38.05
2023-05-04T20:08:05.136Z,37.65
2023-05-04T20:10:51.099Z,33.55
2023-05-04T20:13:38.245Z,45.30
2023-05-04T20:16:24.044Z,39.88
2023-05-04T20:19:09.294Z,42.22
2023-05-04T20:21:54.634Z,41.33
2023-05-04T20:24:40.867Z,31.98
2023-05-04T20:27:26.135Z,33.53
2023-05-04T20:30:11.996Z,30.58
2023-05-04T20:32:57.603Z,38.08
2023-05-04T20:35:44.247Z,42.40
2023-05-04T20:38:29.892Z,39.05
2023-05-04T20:41:15.292Z,31.33
2023-05-04T20:44:00.931Z,39.90
2023-05-04T20:46:46.249Z,38.13
2023-05-04T20:49:31.605Z,31.60
2023-05-04T20:52:17.262Z,45.65
2023-05-04T20:55:02.725Z,42.38
2023-05-04T20:57:48.414Z,39.80
2023-05-04T21:00:34.044Z,41.47
2023-05-04T21:03:19.875Z,42.30
2023-05-04T21:06:06.075Z,41.83
2023-05-04T21:08:51.390Z,43.30
2023-05-04T21:11:36.744Z,28.83
2023-05-04T21:14:22.210Z,35.50
2023-05-04T21:17:08.146Z,33.47
2023-05-04T21:19:53.414Z,30.50
2023-05-04T21:22:38.689Z,44.03
2023-05-04T21:25:24.156Z,38.30
2023-05-04T21:28:09.665Z,39.60
2023-05-04T21:30:55.318Z,31.52
2023-05-04T21:33:41.178Z,33.50
2023-05-04T21:36:27.533Z,36.20
2023-05-04T21:39:14.253Z,33.70
2023-05-04T21:41:59.530Z,30.17
2023-05-04T21:44:45.067Z,29.75
2023-05-04T21:47:30.780Z,37.67
2023-05-04T21:50:16.467Z,38.03
2023-05-04T21:53:01.889Z,37.80
2023-05-04T21:55:47.257Z,38.15
2023-05-04T21:58:32.670Z,31.30
2023-05-04T22:01:18.462Z,32.33
2023-05-04T22:04:07.103Z,41.05
2023-05-04T22:06:52.842Z,28.27
2023-05-04T22:09:38.314Z,29.77
2023-05-04T22:12:23.606Z,39.92
2023-05-04T22:15:10.327Z,38.95
2023-05-04T22:17:56.080Z,34.78
2023-05-04T22:20:42.472Z,38.95
2023-05-04T22:23:27.844Z,29.50
2023-05-04T22:26:13.390Z,25.45
2023-05-04T22:28:59.046Z,25.85
2023-05-04T22:31:44.620Z,29.95
2023-05-04T22:34:30.029Z,33.05
2023-05-04T22:37:15.571Z,30.90
2023-05-04T22:40:06.626Z,27.88
2023-05-04T22:42:52.110Z,24.25
2023-05-04T22:45:38.462Z,21.30
2023-05-04T22:48:24.021Z,22.27
2023-05-04T22:51:09.745Z,23.67
2023-05-04T22:53:55.164Z,16.60
2023-05-04T22:56:40.527Z,14.45
2023-05-04T22:59:26.005Z,13.40
2023-05-04T23:02:12.243Z,14.90
2023-05-04T23:05:00.556Z,14.45
2023-05-04T23:07:45.970Z,13.27
2023-05-04T23:10:31.350Z,15.73
2023-05-04T23:13:16.934Z,13.30
2023-05-04T23:16:03.718Z,8.73
2023-05-04T23:18:49.309Z,13.35
2023-05-04T23:21:34.797Z,21.15
2023-05-04T23:24:20.358Z,12.48
2023-05-04T23:27:06.241Z,15.20
2023-05-04T23:29:51.721Z,20.25
2023-05-04T23:32:37.176Z,11.32
2023-05-04T23:35:22.643Z,17.95
2023-05-04T23:38:08.194Z,17.67
2023-05-04T23:40:54.076Z,17.52
2023-05-04T23:43:39.821Z,14.52
2023-05-04T23:46:25.180Z,8.40
2023-05-04T23:49:11.928Z,11.55
2023-05-04T23:51:57.300Z,12.77
2023-05-04T23:54:42.788Z,12.80
2023-05-04T23:57:28.855Z,10.77
